sensor_id;sensor_type;location;lat;lon;timestamp;P1;durP1;ratioP1;P2;durP2;ratioP2
47812;SDS011;34221;45.296;9.516;2023-07-16T00:00:13;1.75;;;1.17;;
47812;SDS011;34221;45.296;9.516;2023-07-16T00:00:29;1.60;;;1.17;;
47812;SDS011;34221;45.296;9.516;2023-07-16T00:00:45;1.90;;;1.38;;
47812;SDS011;34221;45.296;9.516;2023-07-16T00:01:00;1.67;;;1.20;;
47812;SDS011;34221;45.296;9.516;2023-07-16T00:01:16;1.25;;;1.00;;
47812;SDS011;34221;45.296;9.516;2023-07-16T00:01:30;1.60;;;1.15;;
47812;SDS011;34221;45.296;9.516;2023-07-16T00:01:45;1.70;;;1.20;;
47812;SDS011;34221;45.296;9.516;2023-07-16T00:02:00;1.45;;;1.15;;
47812;SDS011;34221;45.296;9.516;2023-07-16T00:02:15;1.27;;;1.02;;
47812;SDS011;34221;45.296;9.516;2023-07-16T00:02:30;1.58;;;1.10;;
47812;SDS011;34221;45.296;9.516;2023-07-16T00:02:45;2.05;;;1.38;;
47812;SDS011;34221;45.296;9.516;2023-07-16T00:03:01;1.90;;;1.38;;
47812;SDS011;34221;45.296;9.516;2023-07-16T00:03:16;1.50;;;1.10;;
47812;SDS011;34221;45.296;9.516;2023-07-16T00:03:30;1.45;;;1.00;;
47812;SDS011;34221;45.296;9.516;2023-07-16T00:03:46;1.75;;;1.20;;
47812;SDS011;34221;45.296;9.516;2023-07-16T00:04:01;1.75;;;1.30;;
47812;SDS011;34221;45.296;9.516;2023-07-16T00:04:16;1.83;;;1.40;;
47812;SDS011;34221;45.296;9.516;2023-07-16T00:04:31;2.03;;;1.50;;
47812;SDS011;34221;45.296;9.516;2023-07-16T00:04:46;1.75;;;1.30;;
47812;SDS011;34221;45.296;9.516;2023-07-16T00:05:01;1.48;;;1.20;;
47812;SDS011;34221;45.296;9.516;2023-07-16T00:05:17;1.40;;;1.10;;
47812;SDS011;34221;45.296;9.516;2023-07-16T00:05:32;1.52;;;1.10;;
47812;SDS011;34221;45.296;9.516;2023-07-16T00:05:50;1.77;;;1.30;;
47812;SDS011;34221;45.296;9.516;2023-07-16T00:06:05;1.67;;;1.38;;
47812;SDS011;34221;45.296;9.516;2023-07-16T00:06:20;1.75;;;1.38;;
47812;SDS011;34221;45.296;9.516;2023-07-16T00:06:35;1.92;;;1.42;;
47812;SDS011;34221;45.296;9.516;2023-07-16T00:06:50;1.83;;;1.40;;
47812;SDS011;34221;45.296;9.516;2023-07-16T00:07:05;1.83;;;1.40;;
47812;SDS011;34221;45.296;9.516;2023-07-16T00:07:20;1.75;;;1.30;;
47812;SDS011;34221;45.296;9.516;2023-07-16T00:07:35;1.73;;;1.30;;
47812;SDS011;34221;45.296;9.516;2023-07-16T00:07:50;1.77;;;1.35;;
47812;SDS011;34221;45.296;9.516;2023-07-16T00:08:05;1.67;;;1.30;;
47812;SDS011;34221;45.296;9.516;2023-07-16T00:08:20;1.75;;;1.30;;
47812;SDS011;34221;45.296;9.516;2023-07-16T00:08:35;2.13;;;1.42;;
47812;SDS011;34221;45.296;9.516;2023-07-16T00:08:50;1.98;;;1.30;;
47812;SDS011;34221;45.296;9.516;2023-07-16T00:09:05;1.65;;;1.20;;
47812;SDS011;34221;45.296;9.516;2023-07-16T00:09:20;1.75;;;1.20;;
47812;SDS011;34221;45.296;9.516;2023-07-16T00:09:35;1.73;;;1.20;;
47812;SDS011;34221;45.296;9.516;2023-07-16T00:09:50;2.20;;;1.17;;
47812;SDS011;34221;45.296;9.516;2023-07-16T00:10:05;2.13;;;1.20;;
47812;SDS011;34221;45.296;9.516;2023-07-16T00:10:20;1.58;;;1.20;;
47812;SDS011;34221;45.296;9.516;2023-07-16T00:10:35;1.17;;;1.00;;
47812;SDS011;34221;45.296;9.516;2023-07-16T00:10:51;1.90;;;1.02;;
47812;SDS011;34221;45.296;9.516;2023-07-16T00:11:06;2.40;;;1.20;;
47812;SDS011;34221;45.296;9.516;2023-07-16T00:11:21;1.75;;;1.15;;
47812;SDS011;34221;45.296;9.516;2023-07-16T00:11:35;1.55;;;1.20;;
47812;SDS011;34221;45.296;9.516;2023-07-16T00:11:50;1.60;;;1.08;;
47812;SDS011;34221;45.296;9.516;2023-07-16T00:12:05;1.40;;;0.95;;
47812;SDS011;34221;45.296;9.516;2023-07-16T00:12:21;1.37;;;1.07;;
47812;SDS011;34221;45.296;9.516;2023-07-16T00:12:36;1.92;;;1.20;;
47812;SDS011;34221;45.296;9.516;2023-07-16T00:12:51;2.17;;;1.38;;
47812;SDS011;34221;45.296;9.516;2023-07-16T00:13:06;1.95;;;1.38;;
47812;SDS011;34221;45.296;9.516;2023-07-16T00:13:21;1.90;;;1.33;;
47812;SDS011;34221;45.296;9.516;2023-07-16T00:13:36;1.77;;;1.20;;
47812;SDS011;34221;45.296;9.516;2023-07-16T00:13:51;1.67;;;1.20;;
47812;SDS011;34221;45.296;9.516;2023-07-16T00:14:06;1.83;;;1.27;;
47812;SDS011;34221;45.296;9.516;2023-07-16T00:14:21;1.70;;;1.10;;
47812;SDS011;34221;45.296;9.516;2023-07-16T00:14:36;1.25;;;0.90;;
47812;SDS011;34221;45.296;9.516;2023-07-16T00:14:51;1.23;;;1.00;;
47812;SDS011;34221;45.296;9.516;2023-07-16T00:15:06;1.50;;;1.20;;
47812;SDS011;34221;45.296;9.516;2023-07-16T00:15:22;1.50;;;1.10;;
47812;SDS011;34221;45.296;9.516;2023-07-16T00:15:37;1.52;;;1.13;;
47812;SDS011;34221;45.296;9.516;2023-07-16T00:15:52;1.73;;;1.23;;
47812;SDS011;34221;45.296;9.516;2023-07-16T00:16:07;1.42;;;1.08;;
47812;SDS011;34221;45.296;9.516;2023-07-16T00:16:21;1.27;;;1.10;;
47812;SDS011;34221;45.296;9.516;2023-07-16T00:16:36;1.50;;;1.23;;
47812;SDS011;34221;45.296;9.516;2023-07-16T00:16:52;1.77;;;1.40;;
47812;SDS011;34221;45.296;9.516;2023-07-16T00:17:06;2.13;;;1.30;;
47812;SDS011;34221;45.296;9.516;2023-07-16T00:17:21;2.30;;;1.33;;
47812;SDS011;34221;45.296;9.516;2023-07-16T00:17:36;2.53;;;1.50;;
47812;SDS011;34221;45.296;9.516;2023-07-16T00:17:51;2.35;;;1.50;;
47812;SDS011;34221;45.296;9.516;2023-07-16T00:18:07;1.73;;;1.35;;
47812;SDS011;34221;45.296;9.516;2023-07-16T00:18:22;1.25;;;1.15;;
47812;SDS011;34221;45.296;9.516;2023-07-16T00:18:36;1.20;;;1.10;;
47812;SDS011;34221;45.296;9.516;2023-07-16T00:18:51;1.58;;;1.25;;
47812;SDS011;34221;45.296;9.516;2023-07-16T00:19:06;1.50;;;1.30;;
47812;SDS011;34221;45.296;9.516;2023-07-16T00:19:21;1.88;;;1.33;;
47812;SDS011;34221;45.296;9.516;2023-07-16T00:19:36;2.35;;;1.40;;
47812;SDS011;34221;45.296;9.516;2023-07-16T00:19:51;2.22;;;1.48;;
47812;SDS011;34221;45.296;9.516;2023-07-16T00:20:06;1.90;;;1.33;;
47812;SDS011;34221;45.296;9.516;2023-07-16T00:20:22;2.40;;;1.40;;
47812;SDS011;34221;45.296;9.516;2023-07-16T00:20:40;2.50;;;1.45;;
47812;SDS011;34221;45.296;9.516;2023-07-16T00:20:55;1.67;;;1.10;;
47812;SDS011;34221;45.296;9.516;2023-07-16T00:21:10;1.70;;;1.20;;
47812;SDS011;34221;45.296;9.516;2023-07-16T00:21:25;1.77;;;1.30;;
47812;SDS011;34221;45.296;9.516;2023-07-16T00:21:40;1.65;;;1.30;;
47812;SDS011;34221;45.296;9.516;2023-07-16T00:21:55;1.88;;;1.30;;
47812;SDS011;34221;45.296;9.516;2023-07-16T00:22:10;1.53;;;1.10;;
47812;SDS011;34221;45.296;9.516;2023-07-16T00:22:25;1.17;;;1.00;;
47812;SDS011;34221;45.296;9.516;2023-07-16T00:22:40;2.00;;;1.20;;
47812;SDS011;34221;45.296;9.516;2023-07-16T00:22:55;2.50;;;1.40;;
47812;SDS011;34221;45.296;9.516;2023-07-16T00:23:11;1.75;;;1.30;;
47812;SDS011;34221;45.296;9.516;2023-07-16T00:23:26;1.98;;;1.30;;
47812;SDS011;34221;45.296;9.516;2023-07-16T00:23:41;2.88;;;1.60;;
47812;SDS011;34221;45.296;9.516;2023-07-16T00:23:56;2.40;;;1.40;;
47812;SDS011;34221;45.296;9.516;2023-07-16T00:24:11;1.95;;;1.40;;
47812;SDS011;34221;45.296;9.516;2023-07-16T00:24:26;2.03;;;1.40;;
47812;SDS011;34221;45.296;9.516;2023-07-16T00:24:40;1.83;;;1.38;;
47812;SDS011;34221;45.296;9.516;2023-07-16T00:24:55;1.70;;;1.30;;
47812;SDS011;34221;45.296;9.516;2023-07-16T00:25:10;1.65;;;1.30;;
47812;SDS011;34221;45.296;9.516;2023-07-16T00:25:25;1.98;;;1.52;;
47812;SDS011;34221;45.296;9.516;2023-07-16T00:25:40;1.83;;;1.48;;
47812;SDS011;34221;45.296;9.516;2023-07-16T00:25:55;1.85;;;1.25;;
47812;SDS011;34221;45.296;9.516;2023-07-16T00:26:10;1.92;;;1.20;;
47812;SDS011;34221;45.296;9.516;2023-07-16T00:26:27;1.60;;;1.20;;
47812;SDS011;34221;45.296;9.516;2023-07-16T00:26:42;1.50;;;1.15;;
47812;SDS011;34221;45.296;9.516;2023-07-16T00:26:58;2.47;;;1.35;;
47812;SDS011;34221;45.296;9.516;2023-07-16T00:27:13;2.70;;;1.45;;
47812;SDS011;34221;45.296;9.516;2023-07-16T00:27:29;2.17;;;1.45;;
47812;SDS011;34221;45.296;9.516;2023-07-16T00:27:43;2.50;;;1.63;;
47812;SDS011;34221;45.296;9.516;2023-07-16T00:27:58;2.45;;;1.77;;
47812;SDS011;34221;45.296;9.516;2023-07-16T00:28:13;1.80;;;1.50;;
47812;SDS011;34221;45.296;9.516;2023-07-16T00:28:29;2.00;;;1.50;;
47812;SDS011;34221;45.296;9.516;2023-07-16T00:28:44;2.47;;;1.58;;
47812;SDS011;34221;45.296;9.516;2023-07-16T00:29:17;2.45;;;1.50;;
47812;SDS011;34221;45.296;9.516;2023-07-16T00:29:33;2.42;;;1.50;;
47812;SDS011;34221;45.296;9.516;2023-07-16T00:29:48;2.33;;;1.35;;
47812;SDS011;34221;45.296;9.516;2023-07-16T00:30:03;2.13;;;1.35;;
47812;SDS011;34221;45.296;9.516;2023-07-16T00:30:19;2.00;;;1.38;;
47812;SDS011;34221;45.296;9.516;2023-07-16T00:30:34;2.33;;;1.58;;
47812;SDS011;34221;45.296;9.516;2023-07-16T00:30:48;2.17;;;1.52;;
47812;SDS011;34221;45.296;9.516;2023-07-16T00:31:03;2.28;;;1.40;;
47812;SDS011;34221;45.296;9.516;2023-07-16T00:31:19;2.38;;;1.58;;
47812;SDS011;34221;45.296;9.516;2023-07-16T00:31:34;2.00;;;1.50;;
47812;SDS011;34221;45.296;9.516;2023-07-16T00:31:49;2.42;;;1.60;;
47812;SDS011;34221;45.296;9.516;2023-07-16T00:32:04;2.42;;;1.52;;
47812;SDS011;34221;45.296;9.516;2023-07-16T00:32:19;1.80;;;1.20;;
47812;SDS011;34221;45.296;9.516;2023-07-16T00:32:34;1.98;;;1.30;;
47812;SDS011;34221;45.296;9.516;2023-07-16T00:32:49;2.33;;;1.50;;
47812;SDS011;34221;45.296;9.516;2023-07-16T00:33:04;2.33;;;1.50;;
47812;SDS011;34221;45.296;9.516;2023-07-16T00:33:19;1.73;;;1.23;;
47812;SDS011;34221;45.296;9.516;2023-07-16T00:33:34;1.73;;;1.25;;
47812;SDS011;34221;45.296;9.516;2023-07-16T00:33:49;2.03;;;1.38;;
47812;SDS011;34221;45.296;9.516;2023-07-16T00:34:04;2.13;;;1.30;;
47812;SDS011;34221;45.296;9.516;2023-07-16T00:34:19;1.90;;;1.20;;
47812;SDS011;34221;45.296;9.516;2023-07-16T00:34:34;1.38;;;1.10;;
47812;SDS011;34221;45.296;9.516;2023-07-16T00:34:49;1.92;;;1.40;;
47812;SDS011;34221;45.296;9.516;2023-07-16T00:35:04;2.45;;;1.42;;
47812;SDS011;34221;45.296;9.516;2023-07-16T00:35:20;2.17;;;1.30;;
47812;SDS011;34221;45.296;9.516;2023-07-16T00:35:35;1.77;;;1.30;;
47812;SDS011;34221;45.296;9.516;2023-07-16T00:35:50;1.88;;;1.33;;
47812;SDS011;34221;45.296;9.516;2023-07-16T00:36:05;2.20;;;1.50;;
47812;SDS011;34221;45.296;9.516;2023-07-16T00:36:20;1.83;;;1.30;;
47812;SDS011;34221;45.296;9.516;2023-07-16T00:36:34;1.40;;;1.10;;
47812;SDS011;34221;45.296;9.516;2023-07-16T00:36:50;2.10;;;1.20;;
47812;SDS011;34221;45.296;9.516;2023-07-16T00:37:05;2.68;;;1.50;;
47812;SDS011;34221;45.296;9.516;2023-07-16T00:37:20;2.17;;;1.40;;
47812;SDS011;34221;45.296;9.516;2023-07-16T00:37:34;2.75;;;1.55;;
47812;SDS011;34221;45.296;9.516;2023-07-16T00:37:49;3.35;;;1.80;;
47812;SDS011;34221;45.296;9.516;2023-07-16T00:38:04;2.60;;;1.55;;
47812;SDS011;34221;45.296;9.516;2023-07-16T00:38:19;1.75;;;1.20;;
47812;SDS011;34221;45.296;9.516;2023-07-16T00:38:34;1.77;;;1.20;;
47812;SDS011;34221;45.296;9.516;2023-07-16T00:38:49;1.75;;;1.30;;
47812;SDS011;34221;45.296;9.516;2023-07-16T00:39:04;1.75;;;1.40;;
47812;SDS011;34221;45.296;9.516;2023-07-16T00:39:19;2.03;;;1.60;;
47812;SDS011;34221;45.296;9.516;2023-07-16T00:39:35;1.83;;;1.35;;
47812;SDS011;34221;45.296;9.516;2023-07-16T00:39:50;1.52;;;1.15;;
47812;SDS011;34221;45.296;9.516;2023-07-16T00:40:05;1.65;;;1.20;;
47812;SDS011;34221;45.296;9.516;2023-07-16T00:40:22;1.60;;;1.20;;
47812;SDS011;34221;45.296;9.516;2023-07-16T00:40:37;2.05;;;1.35;;
47812;SDS011;34221;45.296;9.516;2023-07-16T00:40:52;2.13;;;1.35;;
47812;SDS011;34221;45.296;9.516;2023-07-16T00:41:07;1.70;;;1.20;;
47812;SDS011;34221;45.296;9.516;2023-07-16T00:41:23;1.52;;;1.20;;
47812;SDS011;34221;45.296;9.516;2023-07-16T00:41:39;1.63;;;1.23;;
47812;SDS011;34221;45.296;9.516;2023-07-16T00:41:54;1.75;;;1.30;;
47812;SDS011;34221;45.296;9.516;2023-07-16T00:42:10;2.30;;;1.63;;
47812;SDS011;34221;45.296;9.516;2023-07-16T00:42:25;2.22;;;1.50;;
47812;SDS011;34221;45.296;9.516;2023-07-16T00:42:40;1.70;;;1.10;;
47812;SDS011;34221;45.296;9.516;2023-07-16T00:42:55;1.80;;;1.30;;
47812;SDS011;34221;45.296;9.516;2023-07-16T00:43:10;2.05;;;1.45;;
47812;SDS011;34221;45.296;9.516;2023-07-16T00:43:25;1.77;;;1.25;;
47812;SDS011;34221;45.296;9.516;2023-07-16T00:43:40;1.40;;;1.10;;
47812;SDS011;34221;45.296;9.516;2023-07-16T00:43:55;1.73;;;1.30;;
47812;SDS011;34221;45.296;9.516;2023-07-16T00:44:10;1.67;;;1.20;;
47812;SDS011;34221;45.296;9.516;2023-07-16T00:44:25;1.50;;;1.10;;
47812;SDS011;34221;45.296;9.516;2023-07-16T00:44:40;1.60;;;1.10;;
47812;SDS011;34221;45.296;9.516;2023-07-16T00:44:55;1.88;;;1.30;;
47812;SDS011;34221;45.296;9.516;2023-07-16T00:45:29;2.88;;;1.40;;
47812;SDS011;34221;45.296;9.516;2023-07-16T00:45:45;2.35;;;1.38;;
47812;SDS011;34221;45.296;9.516;2023-07-16T00:46:00;1.75;;;1.30;;
47812;SDS011;34221;45.296;9.516;2023-07-16T00:46:15;1.48;;;1.13;;
47812;SDS011;34221;45.296;9.516;2023-07-16T00:46:31;1.83;;;1.20;;
47812;SDS011;34221;45.296;9.516;2023-07-16T00:46:46;2.40;;;1.50;;
47812;SDS011;34221;45.296;9.516;2023-07-16T00:47:01;2.13;;;1.48;;
47812;SDS011;34221;45.296;9.516;2023-07-16T00:47:37;1.55;;;1.17;;
47812;SDS011;34221;45.296;9.516;2023-07-16T00:47:52;1.70;;;1.20;;
47812;SDS011;34221;45.296;9.516;2023-07-16T00:48:07;1.90;;;1.38;;
47812;SDS011;34221;45.296;9.516;2023-07-16T00:48:22;1.85;;;1.25;;
47812;SDS011;34221;45.296;9.516;2023-07-16T00:48:38;2.08;;;1.38;;
47812;SDS011;34221;45.296;9.516;2023-07-16T00:48:55;2.50;;;1.50;;
47812;SDS011;34221;45.296;9.516;2023-07-16T00:49:11;2.45;;;1.45;;
47812;SDS011;34221;45.296;9.516;2023-07-16T00:49:26;2.22;;;1.58;;
47812;SDS011;34221;45.296;9.516;2023-07-16T00:49:43;2.35;;;1.65;;
47812;SDS011;34221;45.296;9.516;2023-07-16T00:49:58;2.08;;;1.52;;
47812;SDS011;34221;45.296;9.516;2023-07-16T00:50:13;1.77;;;1.35;;
47812;SDS011;34221;45.296;9.516;2023-07-16T00:50:28;2.05;;;1.45;;
47812;SDS011;34221;45.296;9.516;2023-07-16T00:50:49;2.05;;;1.50;;
47812;SDS011;34221;45.296;9.516;2023-07-16T00:51:06;2.33;;;1.70;;
47812;SDS011;34221;45.296;9.516;2023-07-16T00:51:22;2.17;;;1.63;;
47812;SDS011;34221;45.296;9.516;2023-07-16T00:51:39;2.20;;;1.50;;
47812;SDS011;34221;45.296;9.516;2023-07-16T00:51:54;2.40;;;1.60;;
47812;SDS011;34221;45.296;9.516;2023-07-16T00:52:14;2.33;;;1.65;;
47812;SDS011;34221;45.296;9.516;2023-07-16T00:52:33;3.10;;;1.70;;
47812;SDS011;34221;45.296;9.516;2023-07-16T00:52:48;2.25;;;1.63;;
47812;SDS011;34221;45.296;9.516;2023-07-16T00:53:03;1.88;;;1.60;;
47812;SDS011;34221;45.296;9.516;2023-07-16T00:53:21;1.88;;;1.50;;
47812;SDS011;34221;45.296;9.516;2023-07-16T00:53:36;2.13;;;1.50;;
47812;SDS011;34221;45.296;9.516;2023-07-16T00:53:51;2.17;;;1.45;;
47812;SDS011;34221;45.296;9.516;2023-07-16T00:54:06;1.83;;;1.33;;
47812;SDS011;34221;45.296;9.516;2023-07-16T00:54:21;2.33;;;1.48;;
47812;SDS011;34221;45.296;9.516;2023-07-16T00:54:37;2.13;;;1.38;;
47812;SDS011;34221;45.296;9.516;2023-07-16T00:54:52;1.92;;;1.40;;
47812;SDS011;34221;45.296;9.516;2023-07-16T00:55:07;1.90;;;1.40;;
47812;SDS011;34221;45.296;9.516;2023-07-16T00:55:23;1.90;;;1.38;;
47812;SDS011;34221;45.296;9.516;2023-07-16T00:55:38;2.15;;;1.38;;
47812;SDS011;34221;45.296;9.516;2023-07-16T00:55:53;1.73;;;1.20;;
47812;SDS011;34221;45.296;9.516;2023-07-16T00:56:08;1.67;;;1.27;;
47812;SDS011;34221;45.296;9.516;2023-07-16T00:56:24;1.70;;;1.30;;
47812;SDS011;34221;45.296;9.516;2023-07-16T00:56:39;1.42;;;1.25;;
47812;SDS011;34221;45.296;9.516;2023-07-16T00:56:54;1.42;;;1.27;;
47812;SDS011;34221;45.296;9.516;2023-07-16T00:57:09;1.65;;;1.40;;
47812;SDS011;34221;45.296;9.516;2023-07-16T00:57:24;2.08;;;1.50;;
47812;SDS011;34221;45.296;9.516;2023-07-16T00:57:39;2.30;;;1.33;;
47812;SDS011;34221;45.296;9.516;2023-07-16T00:57:54;1.95;;;1.30;;
47812;SDS011;34221;45.296;9.516;2023-07-16T00:58:12;1.85;;;1.40;;
47812;SDS011;34221;45.296;9.516;2023-07-16T00:58:27;1.85;;;1.40;;
47812;SDS011;34221;45.296;9.516;2023-07-16T00:58:43;1.63;;;1.25;;
47812;SDS011;34221;45.296;9.516;2023-07-16T00:58:58;1.60;;;1.17;;
47812;SDS011;34221;45.296;9.516;2023-07-16T00:59:13;1.60;;;1.27;;
47812;SDS011;34221;45.296;9.516;2023-07-16T00:59:28;2.13;;;1.40;;
47812;SDS011;34221;45.296;9.516;2023-07-16T00:59:46;2.25;;;1.27;;
47812;SDS011;34221;45.296;9.516;2023-07-16T01:00:01;1.65;;;1.13;;
47812;SDS011;34221;45.296;9.516;2023-07-16T01:00:19;1.70;;;1.20;;
47812;SDS011;34221;45.296;9.516;2023-07-16T01:00:34;2.15;;;1.30;;
47812;SDS011;34221;45.296;9.516;2023-07-16T01:00:54;2.40;;;1.40;;
47812;SDS011;34221;45.296;9.516;2023-07-16T01:01:09;1.70;;;1.25;;
47812;SDS011;34221;45.296;9.516;2023-07-16T01:01:24;1.35;;;1.10;;
47812;SDS011;34221;45.296;9.516;2023-07-16T01:01:39;2.22;;;1.48;;
47812;SDS011;34221;45.296;9.516;2023-07-16T01:01:54;2.60;;;1.67;;
47812;SDS011;34221;45.296;9.516;2023-07-16T01:02:09;2.15;;;1.48;;
47812;SDS011;34221;45.296;9.516;2023-07-16T01:02:24;1.80;;;1.38;;
47812;SDS011;34221;45.296;9.516;2023-07-16T01:02:39;2.00;;;1.48;;
47812;SDS011;34221;45.296;9.516;2023-07-16T01:02:54;2.40;;;1.40;;
47812;SDS011;34221;45.296;9.516;2023-07-16T01:03:14;2.70;;;1.60;;
47812;SDS011;34221;45.296;9.516;2023-07-16T01:03:29;2.80;;;1.83;;
47812;SDS011;34221;45.296;9.516;2023-07-16T01:03:44;2.35;;;1.67;;
47812;SDS011;34221;45.296;9.516;2023-07-16T01:03:59;1.90;;;1.40;;
47812;SDS011;34221;45.296;9.516;2023-07-16T01:04:33;2.10;;;1.58;;
47812;SDS011;34221;45.296;9.516;2023-07-16T01:04:48;2.05;;;1.48;;
47812;SDS011;34221;45.296;9.516;2023-07-16T01:05:03;1.90;;;1.42;;
47812;SDS011;34221;45.296;9.516;2023-07-16T01:05:19;2.78;;;1.50;;
47812;SDS011;34221;45.296;9.516;2023-07-16T01:05:41;2.90;;;1.25;;
47812;SDS011;34221;45.296;9.516;2023-07-16T01:06:11;1.52;;;1.20;;
47812;SDS011;34221;45.296;9.516;2023-07-16T01:06:50;2.05;;;1.50;;
47812;SDS011;34221;45.296;9.516;2023-07-16T01:07:13;2.28;;;1.50;;
47812;SDS011;34221;45.296;9.516;2023-07-16T01:07:30;2.40;;;1.50;;
47812;SDS011;34221;45.296;9.516;2023-07-16T01:07:48;1.83;;;1.30;;
47812;SDS011;34221;45.296;9.516;2023-07-16T01:08:12;1.45;;;1.25;;
47812;SDS011;34221;45.296;9.516;2023-07-16T01:08:40;1.35;;;1.20;;
47812;SDS011;34221;45.296;9.516;2023-07-16T01:09:06;1.23;;;1.05;;
47812;SDS011;34221;45.296;9.516;2023-07-16T01:09:31;1.80;;;1.20;;
47812;SDS011;34221;45.296;9.516;2023-07-16T01:09:47;1.80;;;1.20;;
47812;SDS011;34221;45.296;9.516;2023-07-16T01:10:02;1.98;;;1.30;;
47812;SDS011;34221;45.296;9.516;2023-07-16T01:10:19;1.83;;;1.30;;
47812;SDS011;34221;45.296;9.516;2023-07-16T01:10:37;1.80;;;1.40;;
47812;SDS011;34221;45.296;9.516;2023-07-16T01:10:54;2.17;;;1.45;;
47812;SDS011;34221;45.296;9.516;2023-07-16T01:11:09;2.20;;;1.38;;
47812;SDS011;34221;45.296;9.516;2023-07-16T01:11:26;2.40;;;1.40;;
47812;SDS011;34221;45.296;9.516;2023-07-16T01:11:41;2.42;;;1.45;;
47812;SDS011;34221;45.296;9.516;2023-07-16T01:11:58;1.85;;;1.30;;
47812;SDS011;34221;45.296;9.516;2023-07-16T01:12:15;1.97;;;1.40;;
47812;SDS011;34221;45.296;9.516;2023-07-16T01:12:30;2.05;;;1.40;;
47812;SDS011;34221;45.296;9.516;2023-07-16T01:12:46;1.73;;;1.40;;
47812;SDS011;34221;45.296;9.516;2023-07-16T01:13:02;1.38;;;1.15;;
47812;SDS011;34221;45.296;9.516;2023-07-16T01:13:17;1.95;;;1.35;;
47812;SDS011;34221;45.296;9.516;2023-07-16T01:13:33;2.55;;;1.70;;
47812;SDS011;34221;45.296;9.516;2023-07-16T01:13:49;1.98;;;1.42;;
47812;SDS011;34221;45.296;9.516;2023-07-16T01:14:05;1.80;;;1.33;;
47812;SDS011;34221;45.296;9.516;2023-07-16T01:14:22;1.95;;;1.40;;
47812;SDS011;34221;45.296;9.516;2023-07-16T01:14:38;1.67;;;1.30;;
47812;SDS011;34221;45.296;9.516;2023-07-16T01:14:55;1.85;;;1.40;;
47812;SDS011;34221;45.296;9.516;2023-07-16T01:15:11;1.85;;;1.35;;
47812;SDS011;34221;45.296;9.516;2023-07-16T01:15:27;1.67;;;1.27;;
47812;SDS011;34221;45.296;9.516;2023-07-16T01:15:42;2.00;;;1.38;;
47812;SDS011;34221;45.296;9.516;2023-07-16T01:15:57;2.03;;;1.42;;
47812;SDS011;34221;45.296;9.516;2023-07-16T01:16:21;2.22;;;1.60;;
47812;SDS011;34221;45.296;9.516;2023-07-16T01:16:38;2.30;;;1.50;;
47812;SDS011;34221;45.296;9.516;2023-07-16T01:16:55;2.35;;;1.65;;
47812;SDS011;34221;45.296;9.516;2023-07-16T01:17:13;1.90;;;1.53;;
47812;SDS011;34221;45.296;9.516;2023-07-16T01:17:28;1.73;;;1.43;;
47812;SDS011;34221;45.296;9.516;2023-07-16T01:17:43;2.30;;;1.55;;
47812;SDS011;34221;45.296;9.516;2023-07-16T01:17:59;2.22;;;1.42;;
47812;SDS011;34221;45.296;9.516;2023-07-16T01:18:14;2.55;;;1.52;;
47812;SDS011;34221;45.296;9.516;2023-07-16T01:18:29;3.08;;;1.45;;
47812;SDS011;34221;45.296;9.516;2023-07-16T01:18:44;2.50;;;1.33;;
47812;SDS011;34221;45.296;9.516;2023-07-16T01:18:59;2.83;;;1.38;;
47812;SDS011;34221;45.296;9.516;2023-07-16T01:19:14;2.80;;;1.40;;
47812;SDS011;34221;45.296;9.516;2023-07-16T01:19:29;1.83;;;1.40;;
47812;SDS011;34221;45.296;9.516;2023-07-16T01:19:44;2.40;;;1.35;;
47812;SDS011;34221;45.296;9.516;2023-07-16T01:19:59;2.75;;;1.50;;
47812;SDS011;34221;45.296;9.516;2023-07-16T01:20:14;2.28;;;1.60;;
47812;SDS011;34221;45.296;9.516;2023-07-16T01:20:30;1.83;;;1.30;;
47812;SDS011;34221;45.296;9.516;2023-07-16T01:20:45;2.00;;;1.38;;
47812;SDS011;34221;45.296;9.516;2023-07-16T01:21:00;2.83;;;1.80;;
47812;SDS011;34221;45.296;9.516;2023-07-16T01:21:15;2.63;;;1.75;;
47812;SDS011;34221;45.296;9.516;2023-07-16T01:21:45;2.15;;;1.60;;
47812;SDS011;34221;45.296;9.516;2023-07-16T01:23:26;1.83;;;1.40;;
47812;SDS011;34221;45.296;9.516;2023-07-16T01:25:22;2.13;;;1.50;;
47812;SDS011;34221;45.296;9.516;2023-07-16T01:26:07;1.88;;;1.25;;
47812;SDS011;34221;45.296;9.516;2023-07-16T01:29:40;1.98;;;1.45;;
47812;SDS011;34221;45.296;9.516;2023-07-16T01:30:06;2.78;;;1.58;;
47812;SDS011;34221;45.296;9.516;2023-07-16T01:30:26;2.45;;;1.40;;
47812;SDS011;34221;45.296;9.516;2023-07-16T01:30:43;1.90;;;1.38;;
47812;SDS011;34221;45.296;9.516;2023-07-16T01:31:00;2.00;;;1.38;;
47812;SDS011;34221;45.296;9.516;2023-07-16T01:31:16;2.45;;;1.40;;
47812;SDS011;34221;45.296;9.516;2023-07-16T01:31:32;2.42;;;1.30;;
47812;SDS011;34221;45.296;9.516;2023-07-16T01:31:49;1.90;;;1.30;;
47812;SDS011;34221;45.296;9.516;2023-07-16T01:32:05;1.60;;;1.30;;
47812;SDS011;34221;45.296;9.516;2023-07-16T01:32:24;1.65;;;1.30;;
47812;SDS011;34221;45.296;9.516;2023-07-16T01:32:39;1.50;;;1.20;;
47812;SDS011;34221;45.296;9.516;2023-07-16T01:32:55;1.70;;;1.20;;
47812;SDS011;34221;45.296;9.516;2023-07-16T01:33:12;1.80;;;1.20;;
47812;SDS011;34221;45.296;9.516;2023-07-16T01:33:29;1.85;;;1.40;;
47812;SDS011;34221;45.296;9.516;2023-07-16T01:33:45;1.65;;;1.35;;
47812;SDS011;34221;45.296;9.516;2023-07-16T01:34:02;1.60;;;1.20;;
47812;SDS011;34221;45.296;9.516;2023-07-16T01:34:19;1.63;;;1.30;;
47812;SDS011;34221;45.296;9.516;2023-07-16T01:34:36;1.70;;;1.35;;
47812;SDS011;34221;45.296;9.516;2023-07-16T01:34:51;1.55;;;1.25;;
47812;SDS011;34221;45.296;9.516;2023-07-16T01:35:07;1.52;;;1.20;;
47812;SDS011;34221;45.296;9.516;2023-07-16T01:35:23;1.83;;;1.30;;
47812;SDS011;34221;45.296;9.516;2023-07-16T01:35:39;1.85;;;1.40;;
47812;SDS011;34221;45.296;9.516;2023-07-16T01:35:56;1.75;;;1.35;;
47812;SDS011;34221;45.296;9.516;2023-07-16T01:36:13;2.35;;;1.60;;
47812;SDS011;34221;45.296;9.516;2023-07-16T01:36:31;1.77;;;1.30;;
47812;SDS011;34221;45.296;9.516;2023-07-16T01:36:47;1.73;;;1.20;;
47812;SDS011;34221;45.296;9.516;2023-07-16T01:37:04;1.77;;;1.27;;
47812;SDS011;34221;45.296;9.516;2023-07-16T01:37:19;1.70;;;1.30;;
47812;SDS011;34221;45.296;9.516;2023-07-16T01:37:34;1.98;;;1.30;;
47812;SDS011;34221;45.296;9.516;2023-07-16T01:37:49;2.17;;;1.38;;
47812;SDS011;34221;45.296;9.516;2023-07-16T01:38:24;1.80;;;1.30;;
47812;SDS011;34221;45.296;9.516;2023-07-16T01:38:39;1.80;;;1.35;;
47812;SDS011;34221;45.296;9.516;2023-07-16T01:38:54;1.83;;;1.40;;
47812;SDS011;34221;45.296;9.516;2023-07-16T01:39:09;1.90;;;1.30;;
47812;SDS011;34221;45.296;9.516;2023-07-16T01:39:24;2.25;;;1.42;;
47812;SDS011;34221;45.296;9.516;2023-07-16T01:39:40;2.30;;;1.55;;
47812;SDS011;34221;45.296;9.516;2023-07-16T01:39:55;1.83;;;1.50;;
47812;SDS011;34221;45.296;9.516;2023-07-16T01:40:11;1.42;;;1.20;;
47812;SDS011;34221;45.296;9.516;2023-07-16T01:40:26;1.63;;;1.20;;
47812;SDS011;34221;45.296;9.516;2023-07-16T01:40:41;1.95;;;1.40;;
47812;SDS011;34221;45.296;9.516;2023-07-16T01:40:56;1.67;;;1.38;;
47812;SDS011;34221;45.296;9.516;2023-07-16T01:41:11;1.73;;;1.38;;
47812;SDS011;34221;45.296;9.516;2023-07-16T01:41:26;1.80;;;1.33;;
47812;SDS011;34221;45.296;9.516;2023-07-16T01:41:41;1.58;;;1.17;;
47812;SDS011;34221;45.296;9.516;2023-07-16T01:41:56;1.40;;;1.13;;
47812;SDS011;34221;45.296;9.516;2023-07-16T01:42:11;1.67;;;1.30;;
47812;SDS011;34221;45.296;9.516;2023-07-16T01:42:26;2.20;;;1.58;;
47812;SDS011;34221;45.296;9.516;2023-07-16T01:42:43;2.33;;;1.60;;
47812;SDS011;34221;45.296;9.516;2023-07-16T01:42:58;2.22;;;1.42;;
47812;SDS011;34221;45.296;9.516;2023-07-16T01:43:13;2.40;;;1.45;;
47812;SDS011;34221;45.296;9.516;2023-07-16T01:43:28;2.30;;;1.35;;
47812;SDS011;34221;45.296;9.516;2023-07-16T01:43:43;1.92;;;1.20;;
47812;SDS011;34221;45.296;9.516;2023-07-16T01:43:58;2.10;;;1.40;;